sensor_id;sensor_type;location;lat;lon;timestamp;temperature;humidity
23721;DHT22;42950;52.134;5.578;2024-01-15T00:02:07;2.40;99.90
23721;DHT22;42950;52.134;5.578;2024-01-15T00:04:38;2.40;99.90
23721;DHT22;42950;52.134;5.578;2024-01-15T00:07:04;2.30;99.90
23721;DHT22;42950;52.134;5.578;2024-01-15T00:09:29;2.30;99.90
23721;DHT22;42950;52.134;5.578;2024-01-15T00:11:55;2.30;99.90
23721;DHT22;42950;52.134;5.578;2024-01-15T00:14:20;2.20;99.90
23721;DHT22;42950;52.134;5.578;2024-01-15T00:16:46;2.30;99.90
23721;DHT22;42950;52.134;5.578;2024-01-15T00:19:14;2.20;99.90
23721;DHT22;42950;52.134;5.578;2024-01-15T00:21:39;2.20;99.90
23721;DHT22;42950;52.134;5.578;2024-01-15T00:24:05;2.10;99.90
23721;DHT22;42950;52.134;5.578;2024-01-15T00:26:30;2.10;99.90
23721;DHT22;42950;52.134;5.578;2024-01-15T00:28:56;2.10;99.90
23721;DHT22;42950;52.134;5.578;2024-01-15T00:31:22;2.10;99.90
23721;DHT22;42950;52.134;5.578;2024-01-15T00:33:47;2.00;99.90
23721;DHT22;42950;52.134;5.578;2024-01-15T00:36:13;2.00;99.90
23721;DHT22;42950;52.134;5.578;2024-01-15T00:38:39;2.00;99.90
23721;DHT22;42950;52.134;5.578;2024-01-15T00:41:05;2.00;99.90
23721;DHT22;42950;52.134;5.578;2024-01-15T00:43:31;1.90;99.90
23721;DHT22;42950;52.134;5.578;2024-01-15T00:45:56;1.90;99.90
23721;DHT22;42950;52.134;5.578;2024-01-15T00:48:22;1.90;99.90
23721;DHT22;42950;52.134;5.578;2024-01-15T00:50:47;1.90;99.90
23721;DHT22;42950;52.134;5.578;2024-01-15T00:53:13;1.90;99.90
23721;DHT22;42950;52.134;5.578;2024-01-15T00:55:41;1.90;99.90
23721;DHT22;42950;52.134;5.578;2024-01-15T00:58:07;1.90;99.90
23721;DHT22;42950;52.134;5.578;2024-01-15T01:00:32;1.90;99.90
23721;DHT22;42950;52.134;5.578;2024-01-15T01:02:58;1.80;99.90
23721;DHT22;42950;52.134;5.578;2024-01-15T01:05:23;1.70;99.90
23721;DHT22;42950;52.134;5.578;2024-01-15T01:07:49;1.70;99.90
23721;DHT22;42950;52.134;5.578;2024-01-15T01:10:15;1.70;99.90
23721;DHT22;42950;52.134;5.578;2024-01-15T01:12:40;1.70;99.90
23721;DHT22;42950;52.134;5.578;2024-01-15T01:15:06;1.70;99.90
23721;DHT22;42950;52.134;5.578;2024-01-15T01:17:32;1.70;99.90
23721;DHT22;42950;52.134;5.578;2024-01-15T01:19:57;1.60;99.90
23721;DHT22;42950;52.134;5.578;2024-01-15T01:22:23;1.60;99.90
23721;DHT22;42950;52.134;5.578;2024-01-15T01:24:48;1.60;99.90
23721;DHT22;42950;52.134;5.578;2024-01-15T01:27:14;1.60;99.90
23721;DHT22;42950;52.134;5.578;2024-01-15T01:29:40;1.60;99.90
23721;DHT22;42950;52.134;5.578;2024-01-15T01:32:05;1.70;99.90
23721;DHT22;42950;52.134;5.578;2024-01-15T01:34:33;1.60;99.90
23721;DHT22;42950;52.134;5.578;2024-01-15T01:37:05;1.70;99.90
23721;DHT22;42950;52.134;5.578;2024-01-15T01:39:30;1.60;99.90
23721;DHT22;42950;52.134;5.578;2024-01-15T01:41:56;1.60;99.90
23721;DHT22;42950;52.134;5.578;2024-01-15T01:44:21;1.50;99.90
23721;DHT22;42950;52.134;5.578;2024-01-15T01:46:47;1.60;99.90
23721;DHT22;42950;52.134;5.578;2024-01-15T01:49:12;1.60;99.90
23721;DHT22;42950;52.134;5.578;2024-01-15T01:51:38;1.60;99.90
23721;DHT22;42950;52.134;5.578;2024-01-15T01:54:05;1.60;99.90
23721;DHT22;42950;52.134;5.578;2024-01-15T01:56:32;1.60;99.90
23721;DHT22;42950;52.134;5.578;2024-01-15T01:58:58;1.60;99.90
23721;DHT22;42950;52.134;5.578;2024-01-15T02:01:23;1.60;99.90
23721;DHT22;42950;52.134;5.578;2024-01-15T02:03:49;1.60;99.90
23721;DHT22;42950;52.134;5.578;2024-01-15T02:06:15;1.60;99.90
23721;DHT22;42950;52.134;5.578;2024-01-15T02:08:43;1.60;99.90
23721;DHT22;42950;52.134;5.578;2024-01-15T02:11:09;1.60;99.90
23721;DHT22;42950;52.134;5.578;2024-01-15T02:13:35;1.50;99.90
23721;DHT22;42950;52.134;5.578;2024-01-15T02:16:00;1.60;99.90
23721;DHT22;42950;52.134;5.578;2024-01-15T02:18:27;1.60;99.90
23721;DHT22;42950;52.134;5.578;2024-01-15T02:20:52;1.60;99.90
23721;DHT22;42950;52.134;5.578;2024-01-15T02:36:47;1.60;99.90
23721;DHT22;42950;52.134;5.578;2024-01-15T02:39:12;1.60;99.90
23721;DHT22;42950;52.134;5.578;2024-01-15T02:41:38;1.60;99.90
23721;DHT22;42950;52.134;5.578;2024-01-15T02:44:04;1.70;99.90
23721;DHT22;42950;52.134;5.578;2024-01-15T02:46:29;1.70;99.90
23721;DHT22;42950;52.134;5.578;2024-01-15T02:48:55;1.70;99.90
23721;DHT22;42950;52.134;5.578;2024-01-15T02:51:20;1.80;99.90
23721;DHT22;42950;52.134;5.578;2024-01-15T02:53:46;1.90;99.90
23721;DHT22;42950;52.134;5.578;2024-01-15T02:56:12;1.80;99.90
23721;DHT22;42950;52.134;5.578;2024-01-15T02:58:37;1.90;99.90
23721;DHT22;42950;52.134;5.578;2024-01-15T03:01:03;1.90;99.90
23721;DHT22;42950;52.134;5.578;2024-01-15T03:03:28;1.90;99.90
23721;DHT22;42950;52.134;5.578;2024-01-15T03:05:54;1.90;99.90
23721;DHT22;42950;52.134;5.578;2024-01-15T03:08:19;1.90;99.90
23721;DHT22;42950;52.134;5.578;2024-01-15T03:10:45;1.90;99.90
23721;DHT22;42950;52.134;5.578;2024-01-15T03:13:11;2.00;99.90
23721;DHT22;42950;52.134;5.578;2024-01-15T03:15:36;1.90;99.90
23721;DHT22;42950;52.134;5.578;2024-01-15T03:18:02;2.00;99.90
23721;DHT22;42950;52.134;5.578;2024-01-15T03:20:28;2.00;99.90
23721;DHT22;42950;52.134;5.578;2024-01-15T03:22:54;2.00;99.90
23721;DHT22;42950;52.134;5.578;2024-01-15T03:25:19;2.00;99.90
23721;DHT22;42950;52.134;5.578;2024-01-15T03:27:45;2.00;99.90
23721;DHT22;42950;52.134;5.578;2024-01-15T03:30:11;2.10;99.90
23721;DHT22;42950;52.134;5.578;2024-01-15T03:32:37;2.10;99.90
23721;DHT22;42950;52.134;5.578;2024-01-15T03:35:02;2.10;99.90
23721;DHT22;42950;52.134;5.578;2024-01-15T03:37:28;2.10;99.90
23721;DHT22;42950;52.134;5.578;2024-01-15T03:39:53;2.10;99.90
23721;DHT22;42950;52.134;5.578;2024-01-15T03:42:19;2.10;99.90
23721;DHT22;42950;52.134;5.578;2024-01-15T03:44:45;2.10;99.90
23721;DHT22;42950;52.134;5.578;2024-01-15T03:47:10;2.10;99.90
23721;DHT22;42950;52.134;5.578;2024-01-15T03:49:36;1.70;99.90
23721;DHT22;42950;52.134;5.578;2024-01-15T03:52:01;2.10;99.90
23721;DHT22;42950;52.134;5.578;2024-01-15T03:54:27;2.10;99.90
23721;DHT22;42950;52.134;5.578;2024-01-15T03:56:52;2.10;99.90
23721;DHT22;42950;52.134;5.578;2024-01-15T03:59:18;2.10;99.90
23721;DHT22;42950;52.134;5.578;2024-01-15T04:01:50;2.10;99.90
23721;DHT22;42950;52.134;5.578;2024-01-15T04:04:19;2.10;99.90
23721;DHT22;42950;52.134;5.578;2024-01-15T04:06:44;2.10;99.90
23721;DHT22;42950;52.134;5.578;2024-01-15T04:09:11;2.00;99.90
23721;DHT22;42950;52.134;5.578;2024-01-15T04:11:37;2.00;99.90
23721;DHT22;42950;52.134;5.578;2024-01-15T04:14:02;2.00;99.90
23721;DHT22;42950;52.134;5.578;2024-01-15T04:16:28;1.90;99.90
23721;DHT22;42950;52.134;5.578;2024-01-15T04:18:53;1.90;99.90
23721;DHT22;42950;52.134;5.578;2024-01-15T04:21:19;1.90;99.90
23721;DHT22;42950;52.134;5.578;2024-01-15T04:23:44;1.80;99.90
23721;DHT22;42950;52.134;5.578;2024-01-15T04:26:10;1.80;99.90
23721;DHT22;42950;52.134;5.578;2024-01-15T04:28:35;1.80;99.90
23721;DHT22;42950;52.134;5.578;2024-01-15T04:31:01;1.80;99.90
23721;DHT22;42950;52.134;5.578;2024-01-15T04:33:27;1.80;99.90
23721;DHT22;42950;52.134;5.578;2024-01-15T04:35:52;1.80;99.90
23721;DHT22;42950;52.134;5.578;2024-01-15T04:38:18;1.70;99.90
23721;DHT22;42950;52.134;5.578;2024-01-15T04:40:43;1.70;99.90
23721;DHT22;42950;52.134;5.578;2024-01-15T04:43:09;1.70;99.90
23721;DHT22;42950;52.134;5.578;2024-01-15T04:45:34;1.70;99.90
23721;DHT22;42950;52.134;5.578;2024-01-15T04:48:00;1.70;99.90
23721;DHT22;42950;52.134;5.578;2024-01-15T04:50:25;1.70;99.90
23721;DHT22;42950;52.134;5.578;2024-01-15T04:52:51;1.70;99.90
23721;DHT22;42950;52.134;5.578;2024-01-15T04:55:16;1.70;99.90
23721;DHT22;42950;52.134;5.578;2024-01-15T04:57:42;1.70;99.90
23721;DHT22;42950;52.134;5.578;2024-01-15T05:00:08;1.70;99.90
23721;DHT22;42950;52.134;5.578;2024-01-15T05:02:33;1.70;99.90
23721;DHT22;42950;52.134;5.578;2024-01-15T05:04:59;1.60;99.90
23721;DHT22;42950;52.134;5.578;2024-01-15T05:07:25;1.60;99.90
23721;DHT22;42950;52.134;5.578;2024-01-15T05:09:50;1.60;99.90
23721;DHT22;42950;52.134;5.578;2024-01-15T05:12:16;1.60;99.90
23721;DHT22;42950;52.134;5.578;2024-01-15T05:14:41;1.70;99.90
23721;DHT22;42950;52.134;5.578;2024-01-15T05:17:07;1.70;99.90
23721;DHT22;42950;52.134;5.578;2024-01-15T05:19:32;1.70;99.90
23721;DHT22;42950;52.134;5.578;2024-01-15T05:21:58;1.70;99.90
23721;DHT22;42950;52.134;5.578;2024-01-15T05:24:23;1.70;99.90
23721;DHT22;42950;52.134;5.578;2024-01-15T05:26:51;1.80;99.90
23721;DHT22;42950;52.134;5.578;2024-01-15T05:29:17;1.80;99.90
23721;DHT22;42950;52.134;5.578;2024-01-15T05:31:43;1.80;99.90
23721;DHT22;42950;52.134;5.578;2024-01-15T05:34:09;1.80;99.90
23721;DHT22;42950;52.134;5.578;2024-01-15T05:36:34;1.80;99.90
23721;DHT22;42950;52.134;5.578;2024-01-15T05:39:00;1.80;99.90
23721;DHT22;42950;52.134;5.578;2024-01-15T05:41:25;1.80;99.90
23721;DHT22;42950;52.134;5.578;2024-01-15T05:43:52;1.80;99.90
23721;DHT22;42950;52.134;5.578;2024-01-15T05:46:17;1.80;99.90
23721;DHT22;42950;52.134;5.578;2024-01-15T05:48:43;1.90;99.90
23721;DHT22;42950;52.134;5.578;2024-01-15T05:51:10;1.90;99.90
23721;DHT22;42950;52.134;5.578;2024-01-15T05:53:35;1.90;99.90
23721;DHT22;42950;52.134;5.578;2024-01-15T05:56:01;1.90;99.90
23721;DHT22;42950;52.134;5.578;2024-01-15T05:58:26;1.90;99.90
23721;DHT22;42950;52.134;5.578;2024-01-15T06:00:52;2.00;99.90
23721;DHT22;42950;52.134;5.578;2024-01-15T06:03:17;2.00;99.90
23721;DHT22;42950;52.134;5.578;2024-01-15T06:05:43;2.00;99.90
23721;DHT22;42950;52.134;5.578;2024-01-15T06:08:09;1.90;99.90
23721;DHT22;42950;52.134;5.578;2024-01-15T06:10:34;1.90;99.90
23721;DHT22;42950;52.134;5.578;2024-01-15T06:13:01;1.90;99.90
23721;DHT22;42950;52.134;5.578;2024-01-15T06:15:26;1.90;99.90
23721;DHT22;42950;52.134;5.578;2024-01-15T06:17:52;1.80;99.90
23721;DHT22;42950;52.134;5.578;2024-01-15T06:20:17;1.70;99.90
23721;DHT22;42950;52.134;5.578;2024-01-15T06:22:43;1.60;99.90
23721;DHT22;42950;52.134;5.578;2024-01-15T06:25:08;1.60;99.90
23721;DHT22;42950;52.134;5.578;2024-01-15T06:27:34;1.60;99.90
23721;DHT22;42950;52.134;5.578;2024-01-15T06:30:00;1.60;99.90
23721;DHT22;42950;52.134;5.578;2024-01-15T06:32:25;1.60;99.90
23721;DHT22;42950;52.134;5.578;2024-01-15T06:34:51;1.60;99.90
23721;DHT22;42950;52.134;5.578;2024-01-15T06:37:16;1.70;99.90
23721;DHT22;42950;52.134;5.578;2024-01-15T06:39:44;1.70;99.90
23721;DHT22;42950;52.134;5.578;2024-01-15T06:42:09;1.70;99.90
23721;DHT22;42950;52.134;5.578;2024-01-15T06:44:35;1.70;99.90
23721;DHT22;42950;52.134;5.578;2024-01-15T06:47:00;1.70;99.90
23721;DHT22;42950;52.134;5.578;2024-01-15T06:49:28;1.70;99.90
23721;DHT22;42950;52.134;5.578;2024-01-15T06:51:55;1.70;99.90
23721;DHT22;42950;52.134;5.578;2024-01-15T06:54:20;1.60;99.90
23721;DHT22;42950;52.134;5.578;2024-01-15T06:56:46;1.60;99.90
23721;DHT22;42950;52.134;5.578;2024-01-15T06:59:11;1.60;99.90
23721;DHT22;42950;52.134;5.578;2024-01-15T07:01:37;1.60;99.90
23721;DHT22;42950;52.134;5.578;2024-01-15T07:04:02;1.60;99.90
23721;DHT22;42950;52.134;5.578;2024-01-15T07:06:28;1.50;99.90
23721;DHT22;42950;52.134;5.578;2024-01-15T07:08:56;1.50;99.90
23721;DHT22;42950;52.134;5.578;2024-01-15T07:11:21;1.60;99.90
23721;DHT22;42950;52.134;5.578;2024-01-15T07:13:47;1.60;99.90
23721;DHT22;42950;52.134;5.578;2024-01-15T07:16:12;1.60;99.90
23721;DHT22;42950;52.134;5.578;2024-01-15T07:18:38;1.60;99.90
23721;DHT22;42950;52.134;5.578;2024-01-15T07:21:04;1.60;99.90
23721;DHT22;42950;52.134;5.578;2024-01-15T07:23:31;1.60;99.90
23721;DHT22;42950;52.134;5.578;2024-01-15T07:25:57;1.60;99.90
23721;DHT22;42950;52.134;5.578;2024-01-15T07:28:22;1.60;99.90
23721;DHT22;42950;52.134;5.578;2024-01-15T07:30:48;1.70;99.90
23721;DHT22;42950;52.134;5.578;2024-01-15T07:33:13;1.60;99.90
23721;DHT22;42950;52.134;5.578;2024-01-15T07:35:39;1.60;99.90
23721;DHT22;42950;52.134;5.578;2024-01-15T07:38:05;1.60;99.90
23721;DHT22;42950;52.134;5.578;2024-01-15T07:40:30;1.50;99.90
23721;DHT22;42950;52.134;5.578;2024-01-15T07:42:56;1.50;99.90
23721;DHT22;42950;52.134;5.578;2024-01-15T07:45:21;1.50;99.90
23721;DHT22;42950;52.134;5.578;2024-01-15T07:47:47;1.50;99.90
23721;DHT22;42950;52.134;5.578;2024-01-15T07:50:13;1.60;99.90
23721;DHT22;42950;52.134;5.578;2024-01-15T07:52:40;1.60;99.90
23721;DHT22;42950;52.134;5.578;2024-01-15T07:55:07;1.60;99.90
23721;DHT22;42950;52.134;5.578;2024-01-15T07:57:33;1.60;99.90
23721;DHT22;42950;52.134;5.578;2024-01-15T07:59:58;1.60;99.90
23721;DHT22;42950;52.134;5.578;2024-01-15T08:02:24;1.60;99.90
23721;DHT22;42950;52.134;5.578;2024-01-15T08:04:49;1.60;99.90
23721;DHT22;42950;52.134;5.578;2024-01-15T08:07:15;1.60;99.90
23721;DHT22;42950;52.134;5.578;2024-01-15T08:09:40;1.60;99.90
23721;DHT22;42950;52.134;5.578;2024-01-15T08:12:07;1.50;99.90
23721;DHT22;42950;52.134;5.578;2024-01-15T08:14:32;1.50;99.90
23721;DHT22;42950;52.134;5.578;2024-01-15T08:16:58;1.60;99.90
23721;DHT22;42950;52.134;5.578;2024-01-15T08:19:24;1.60;99.90
23721;DHT22;42950;52.134;5.578;2024-01-15T08:21:49;1.60;99.90
23721;DHT22;42950;52.134;5.578;2024-01-15T08:24:15;1.60;99.90
23721;DHT22;42950;52.134;5.578;2024-01-15T08:26:40;1.60;99.90
23721;DHT22;42950;52.134;5.578;2024-01-15T08:29:06;1.60;99.90
23721;DHT22;42950;52.134;5.578;2024-01-15T08:31:32;1.60;99.90
23721;DHT22;42950;52.134;5.578;2024-01-15T08:33:57;1.60;99.90
23721;DHT22;42950;52.134;5.578;2024-01-15T08:36:24;1.60;99.90
23721;DHT22;42950;52.134;5.578;2024-01-15T08:38:50;1.60;99.90
23721;DHT22;42950;52.134;5.578;2024-01-15T08:41:15;1.60;99.90
23721;DHT22;42950;52.134;5.578;2024-01-15T08:43:41;1.60;99.90
23721;DHT22;42950;52.134;5.578;2024-01-15T08:46:06;1.60;99.90
23721;DHT22;42950;52.134;5.578;2024-01-15T08:48:32;1.50;99.90
23721;DHT22;42950;52.134;5.578;2024-01-15T08:50:58;1.50;99.90
23721;DHT22;42950;52.134;5.578;2024-01-15T08:53:23;1.50;99.90
23721;DHT22;42950;52.134;5.578;2024-01-15T08:55:49;1.50;99.90
23721;DHT22;42950;52.134;5.578;2024-01-15T08:58:15;1.60;99.90
23721;DHT22;42950;52.134;5.578;2024-01-15T09:00:41;1.60;99.90
23721;DHT22;42950;52.134;5.578;2024-01-15T09:03:07;1.60;99.90
23721;DHT22;42950;52.134;5.578;2024-01-15T09:05:33;1.60;99.90
23721;DHT22;42950;52.134;5.578;2024-01-15T09:07:59;1.60;99.90
23721;DHT22;42950;52.134;5.578;2024-01-15T09:10:25;1.60;99.90
23721;DHT22;42950;52.134;5.578;2024-01-15T09:12:50;1.70;99.90
23721;DHT22;42950;52.134;5.578;2024-01-15T09:15:16;1.70;99.90
23721;DHT22;42950;52.134;5.578;2024-01-15T09:17:42;1.80;99.90
23721;DHT22;42950;52.134;5.578;2024-01-15T09:20:08;1.80;99.90
23721;DHT22;42950;52.134;5.578;2024-01-15T09:22:35;1.80;99.90
23721;DHT22;42950;52.134;5.578;2024-01-15T09:25:01;1.90;99.90
23721;DHT22;42950;52.134;5.578;2024-01-15T09:27:26;2.00;99.90
23721;DHT22;42950;52.134;5.578;2024-01-15T09:29:52;2.10;99.90
23721;DHT22;42950;52.134;5.578;2024-01-15T09:32:18;2.00;99.90
23721;DHT22;42950;52.134;5.578;2024-01-15T09:34:45;2.00;99.90
23721;DHT22;42950;52.134;5.578;2024-01-15T09:37:11;1.90;99.90
23721;DHT22;42950;52.134;5.578;2024-01-15T09:39:37;1.90;99.90
23721;DHT22;42950;52.134;5.578;2024-01-15T09:42:03;1.90;99.90
23721;DHT22;42950;52.134;5.578;2024-01-15T09:44:29;1.90;99.90
23721;DHT22;42950;52.134;5.578;2024-01-15T09:46:56;1.90;99.90
23721;DHT22;42950;52.134;5.578;2024-01-15T09:49:22;1.90;99.90
23721;DHT22;42950;52.134;5.578;2024-01-15T09:51:48;1.90;99.90
23721;DHT22;42950;52.134;5.578;2024-01-15T09:54:15;1.90;99.90
23721;DHT22;42950;52.134;5.578;2024-01-15T09:56:48;2.00;99.90
23721;DHT22;42950;52.134;5.578;2024-01-15T09:59:18;2.00;99.90
23721;DHT22;42950;52.134;5.578;2024-01-15T10:01:44;2.10;99.90
23721;DHT22;42950;52.134;5.578;2024-01-15T10:04:11;2.30;99.90
23721;DHT22;42950;52.134;5.578;2024-01-15T10:06:38;2.20;99.90
23721;DHT22;42950;52.134;5.578;2024-01-15T10:09:05;2.10;99.90
23721;DHT22;42950;52.134;5.578;2024-01-15T10:11:32;2.10;99.90
23721;DHT22;42950;52.134;5.578;2024-01-15T10:13:58;2.00;99.90
23721;DHT22;42950;52.134;5.578;2024-01-15T10:16:23;2.00;99.90
23721;DHT22;42950;52.134;5.578;2024-01-15T10:18:50;2.00;99.90
23721;DHT22;42950;52.134;5.578;2024-01-15T10:21:15;2.00;99.90
23721;DHT22;42950;52.134;5.578;2024-01-15T10:23:41;2.00;99.90
23721;DHT22;42950;52.134;5.578;2024-01-15T10:26:07;2.10;99.90
23721;DHT22;42950;52.134;5.578;2024-01-15T10:28:33;2.10;99.90
23721;DHT22;42950;52.134;5.578;2024-01-15T10:30:59;2.10;99.90
23721;DHT22;42950;52.134;5.578;2024-01-15T10:33:25;2.20;99.90
23721;DHT22;42950;52.134;5.578;2024-01-15T10:35:54;2.20;99.90
23721;DHT22;42950;52.134;5.578;2024-01-15T10:38:21;2.20;99.90
23721;DHT22;42950;52.134;5.578;2024-01-15T10:40:50;2.10;99.90
23721;DHT22;42950;52.134;5.578;2024-01-15T10:43:16;2.00;99.90
23721;DHT22;42950;52.134;5.578;2024-01-15T10:45:44;2.00;99.90
23721;DHT22;42950;52.134;5.578;2024-01-15T10:48:10;2.00;99.90
23721;DHT22;42950;52.134;5.578;2024-01-15T10:50:36;2.00;99.90
23721;DHT22;42950;52.134;5.578;2024-01-15T10:53:03;2.00;99.90
23721;DHT22;42950;52.134;5.578;2024-01-15T10:55:30;2.00;99.90
23721;DHT22;42950;52.134;5.578;2024-01-15T10:57:57;2.10;99.90
23721;DHT22;42950;52.134;5.578;2024-01-15T11:00:23;2.20;99.90
23721;DHT22;42950;52.134;5.578;2024-01-15T11:02:51;2.30;99.90
23721;DHT22;42950;52.134;5.578;2024-01-15T11:05:21;2.20;99.90
23721;DHT22;42950;52.134;5.578;2024-01-15T11:07:48;2.20;99.90
23721;DHT22;42950;52.134;5.578;2024-01-15T11:10:51;2.20;99.90
23721;DHT22;42950;52.134;5.578;2024-01-15T11:16:03;2.30;99.90
23721;DHT22;42950;52.134;5.578;2024-01-15T11:18:36;2.40;99.90
23721;DHT22;42950;52.134;5.578;2024-01-15T11:29:04;2.40;99.90
23721;DHT22;42950;52.134;5.578;2024-01-15T11:34:09;2.40;99.90
23721;DHT22;42950;52.134;5.578;2024-01-15T11:41:57;2.40;99.90
23721;DHT22;42950;52.134;5.578;2024-01-15T11:44:23;2.50;99.90
23721;DHT22;42950;52.134;5.578;2024-01-15T11:46:58;2.50;99.90
23721;DHT22;42950;52.134;5.578;2024-01-15T11:50:02;2.70;99.90
23721;DHT22;42950;52.134;5.578;2024-01-15T11:52:38;2.70;99.90
23721;DHT22;42950;52.134;5.578;2024-01-15T11:55:11;2.70;99.90
23721;DHT22;42950;52.134;5.578;2024-01-15T11:57:47;2.80;99.90
23721;DHT22;42950;52.134;5.578;2024-01-15T12:00:15;3.00;99.90
23721;DHT22;42950;52.134;5.578;2024-01-15T12:02:45;3.10;99.90
23721;DHT22;42950;52.134;5.578;2024-01-15T12:05:12;3.10;99.90
23721;DHT22;42950;52.134;5.578;2024-01-15T12:07:39;3.10;99.90
23721;DHT22;42950;52.134;5.578;2024-01-15T12:10:12;3.10;99.90
23721;DHT22;42950;52.134;5.578;2024-01-15T12:12:59;3.20;99.90
23721;DHT22;42950;52.134;5.578;2024-01-15T12:15:26;3.20;99.90
23721;DHT22;42950;52.134;5.578;2024-01-15T12:17:54;3.00;99.90
23721;DHT22;42950;52.134;5.578;2024-01-15T12:20:20;2.90;99.90
23721;DHT22;42950;52.134;5.578;2024-01-15T12:22:46;2.80;99.90
23721;DHT22;42950;52.134;5.578;2024-01-15T12:25:12;2.70;99.90
23721;DHT22;42950;52.134;5.578;2024-01-15T12:27:37;2.60;99.90
23721;DHT22;42950;52.134;5.578;2024-01-15T12:30:03;2.50;99.90
23721;DHT22;42950;52.134;5.578;2024-01-15T12:32:29;2.50;99.90
23721;DHT22;42950;52.134;5.578;2024-01-15T12:34:55;2.50;99.90
23721;DHT22;42950;52.134;5.578;2024-01-15T12:37:21;2.60;99.90
23721;DHT22;42950;52.134;5.578;2024-01-15T12:39:47;2.50;99.90
23721;DHT22;42950;52.134;5.578;2024-01-15T12:42:16;2.50;99.90
23721;DHT22;42950;52.134;5.578;2024-01-15T12:44:45;2.50;99.90
23721;DHT22;42950;52.134;5.578;2024-01-15T12:47:11;2.60;99.90
23721;DHT22;42950;52.134;5.578;2024-01-15T12:49:38;2.70;99.90
23721;DHT22;42950;52.134;5.578;2024-01-15T12:52:08;2.70;99.90
23721;DHT22;42950;52.134;5.578;2024-01-15T12:54:34;2.50;99.90
23721;DHT22;42950;52.134;5.578;2024-01-15T12:57:00;2.40;99.90
23721;DHT22;42950;52.134;5.578;2024-01-15T12:59:25;2.40;99.90
23721;DHT22;42950;52.134;5.578;2024-01-15T13:01:51;2.40;99.90
23721;DHT22;42950;52.134;5.578;2024-01-15T13:04:23;2.40;99.90
23721;DHT22;42950;52.134;5.578;2024-01-15T13:06:50;2.40;99.90
23721;DHT22;42950;52.134;5.578;2024-01-15T13:09:16;2.40;99.90
23721;DHT22;42950;52.134;5.578;2024-01-15T13:11:43;2.40;99.90
23721;DHT22;42950;52.134;5.578;2024-01-15T13:14:08;2.40;99.90
23721;DHT22;42950;52.134;5.578;2024-01-15T13:16:34;2.40;99.90
23721;DHT22;42950;52.134;5.578;2024-01-15T13:18:59;2.40;99.90
23721;DHT22;42950;52.134;5.578;2024-01-15T13:21:25;2.40;99.90
23721;DHT22;42950;52.134;5.578;2024-01-15T13:23:51;2.40;99.90
23721;DHT22;42950;52.134;5.578;2024-01-15T13:26:16;2.40;99.90
23721;DHT22;42950;52.134;5.578;2024-01-15T13:28:43;2.30;99.90
23721;DHT22;42950;52.134;5.578;2024-01-15T13:31:09;2.40;99.90
23721;DHT22;42950;52.134;5.578;2024-01-15T13:33:35;2.30;99.90
23721;DHT22;42950;52.134;5.578;2024-01-15T13:36:00;2.30;99.90
23721;DHT22;42950;52.134;5.578;2024-01-15T13:38:26;2.40;99.90
23721;DHT22;42950;52.134;5.578;2024-01-15T13:40:53;2.40;99.90
23721;DHT22;42950;52.134;5.578;2024-01-15T13:43:20;2.40;99.90
23721;DHT22;42950;52.134;5.578;2024-01-15T13:45:46;2.50;99.90
23721;DHT22;42950;52.134;5.578;2024-01-15T13:48:12;2.60;99.90
23721;DHT22;42950;52.134;5.578;2024-01-15T13:50:37;2.60;99.90
23721;DHT22;42950;52.134;5.578;2024-01-15T13:56:25;2.70;99.90
23721;DHT22;42950;52.134;5.578;2024-01-15T13:58:50;2.80;99.90
23721;DHT22;42950;52.134;5.578;2024-01-15T14:01:17;2.80;99.90
23721;DHT22;42950;52.134;5.578;2024-01-15T14:03:43;2.80;99.90
23721;DHT22;42950;52.134;5.578;2024-01-15T14:06:09;2.90;99.90
23721;DHT22;42950;52.134;5.578;2024-01-15T14:08:35;2.90;99.90
23721;DHT22;42950;52.134;5.578;2024-01-15T14:11:04;2.80;99.90
23721;DHT22;42950;52.134;5.578;2024-01-15T14:13:31;2.80;99.90
23721;DHT22;42950;52.134;5.578;2024-01-15T14:15:57;2.80;99.90
23721;DHT22;42950;52.134;5.578;2024-01-15T14:18:23;2.80;99.90
23721;DHT22;42950;52.134;5.578;2024-01-15T14:20:48;2.80;99.90
23721;DHT22;42950;52.134;5.578;2024-01-15T14:23:14;2.90;99.90
23721;DHT22;42950;52.134;5.578;2024-01-15T14:25:40;2.80;99.90
23721;DHT22;42950;52.134;5.578;2024-01-15T14:28:05;2.90;99.90
23721;DHT22;42950;52.134;5.578;2024-01-15T14:30:32;3.00;99.90
23721;DHT22;42950;52.134;5.578;2024-01-15T14:32:58;2.90;99.90
23721;DHT22;42950;52.134;5.578;2024-01-15T14:35:23;3.00;99.90
23721;DHT22;42950;52.134;5.578;2024-01-15T14:37:49;3.10;99.90
23721;DHT22;42950;52.134;5.578;2024-01-15T14:40:14;3.10;99.90
23721;DHT22;42950;52.134;5.578;2024-01-15T14:42:43;3.10;99.90
23721;DHT22;42950;52.134;5.578;2024-01-15T14:45:09;3.20;99.90
23721;DHT22;42950;52.134;5.578;2024-01-15T14:47:37;3.20;99.90
23721;DHT22;42950;52.134;5.578;2024-01-15T14:50:07;3.30;99.90
23721;DHT22;42950;52.134;5.578;2024-01-15T14:52:33;3.20;99.90
23721;DHT22;42950;52.134;5.578;2024-01-15T14:54:59;3.20;99.90
23721;DHT22;42950;52.134;5.578;2024-01-15T14:57:25;3.20;99.90
23721;DHT22;42950;52.134;5.578;2024-01-15T14:59:50;3.10;99.90
23721;DHT22;42950;52.134;5.578;2024-01-15T15:02:16;3.10;99.90
23721;DHT22;42950;52.134;5.578;2024-01-15T15:04:43;3.00;99.90
23721;DHT22;42950;52.134;5.578;2024-01-15T15:07:08;2.90;99.90
23721;DHT22;42950;52.134;5.578;2024-01-15T15:09:35;2.90;99.90
23721;DHT22;42950;52.134;5.578;2024-01-15T15:12:05;2.90;99.90
23721;DHT22;42950;52.134;5.578;2024-01-15T15:14:32;2.90;99.90
23721;DHT22;42950;52.134;5.578;2024-01-15T15:17:05;2.90;99.90
23721;DHT22;42950;52.134;5.578;2024-01-15T15:19:31;2.80;99.90
23721;DHT22;42950;52.134;5.578;2024-01-15T15:21:58;2.80;99.90
23721;DHT22;42950;52.134;5.578;2024-01-15T15:24:23;2.90;99.90
23721;DHT22;42950;52.134;5.578;2024-01-15T15:26:49;2.80;99.90
23721;DHT22;42950;52.134;5.578;2024-01-15T15:29:14;2.80;99.90
23721;DHT22;42950;52.134;5.578;2024-01-15T15:31:42;2.70;99.90
23721;DHT22;42950;52.134;5.578;2024-01-15T15:34:08;2.60;99.90
23721;DHT22;42950;52.134;5.578;2024-01-15T15:36:34;2.60;99.90
23721;DHT22;42950;52.134;5.578;2024-01-15T15:39:00;2.60;99.90
23721;DHT22;42950;52.134;5.578;2024-01-15T15:41:25;2.60;99.90
23721;DHT22;42950;52.134;5.578;2024-01-15T15:43:53;2.60;99.90
23721;DHT22;42950;52.134;5.578;2024-01-15T15:46:19;2.60;99.90
23721;DHT22;42950;52.134;5.578;2024-01-15T15:48:44;2.60;99.90
23721;DHT22;42950;52.134;5.578;2024-01-15T15:51:10;2.60;99.90
23721;DHT22;42950;52.134;5.578;2024-01-15T15:53:35;2.70;99.90
23721;DHT22;42950;52.134;5.578;2024-01-15T15:56:01;2.60;99.90
23721;DHT22;42950;52.134;5.578;2024-01-15T15:58:27;2.70;99.90
23721;DHT22;42950;52.134;5.578;2024-01-15T16:00:52;2.80;99.90
23721;DHT22;42950;52.134;5.578;2024-01-15T16:03:18;2.70;99.90
23721;DHT22;42950;52.134;5.578;2024-01-15T16:05:44;2.60;99.90
23721;DHT22;42950;52.134;5.578;2024-01-15T16:08:11;2.50;99.90
23721;DHT22;42950;52.134;5.578;2024-01-15T16:10:38;2.40;99.90
23721;DHT22;42950;52.134;5.578;2024-01-15T16:13:03;2.40;99.90
23721;DHT22;42950;52.134;5.578;2024-01-15T16:15:29;2.40;99.90